sensor_id;sensor_type;location;lat;lon;timestamp;pressure;altitude;pressure_sealevel;temperature;humidity
50550;BME280;36505;52.512;13.460;2024-02-28T00:01:21;101317.69;;;5.58;88.31
50550;BME280;36505;52.512;13.460;2024-02-28T00:03:46;101318.31;;;5.60;87.76
50550;BME280;36505;52.512;13.460;2024-02-28T00:06:12;101304.91;;;5.52;87.56
50550;BME280;36505;52.512;13.460;2024-02-28T00:08:37;101320.41;;;5.58;87.83
50550;BME280;36505;52.512;13.460;2024-02-28T00:11:03;101316.84;;;5.57;87.91
50550;BME280;36505;52.512;13.460;2024-02-28T00:13:28;101308.91;;;5.56;87.71
50550;BME280;36505;52.512;13.460;2024-02-28T00:15:53;101307.22;;;5.55;87.52
50550;BME280;36505;52.512;13.460;2024-02-28T00:18:19;101314.50;;;5.54;87.69
50550;BME280;36505;52.512;13.460;2024-02-28T00:20:45;101310.97;;;5.54;87.83
50550;BME280;36505;52.512;13.460;2024-02-28T00:23:10;101305.94;;;5.51;88.13
50550;BME280;36505;52.512;13.460;2024-02-28T00:25:35;101310.13;;;5.53;87.48
50550;BME280;36505;52.512;13.460;2024-02-28T00:28:01;101308.47;;;5.52;88.08
50550;BME280;36505;52.512;13.460;2024-02-28T00:30:26;101312.84;;;5.53;88.28
50550;BME280;36505;52.512;13.460;2024-02-28T00:32:54;101309.28;;;5.53;88.09
50550;BME280;36505;52.512;13.460;2024-02-28T00:35:19;101306.97;;;5.50;88.78
50550;BME280;36505;52.512;13.460;2024-02-28T00:37:45;101304.06;;;5.51;89.09
50550;BME280;36505;52.512;13.460;2024-02-28T00:40:10;101308.47;;;5.52;89.24
50550;BME280;36505;52.512;13.460;2024-02-28T00:42:36;101311.38;;;5.51;88.83
50550;BME280;36505;52.512;13.460;2024-02-28T00:45:01;101307.16;;;5.48;88.17
50550;BME280;36505;52.512;13.460;2024-02-28T00:47:27;101309.88;;;5.48;88.94
50550;BME280;36505;52.512;13.460;2024-02-28T00:49:53;101311.75;;;5.48;89.16
50550;BME280;36505;52.512;13.460;2024-02-28T00:52:18;101297.50;;;5.46;88.53
50550;BME280;36505;52.512;13.460;2024-02-28T00:54:43;101315.72;;;5.45;88.62
50550;BME280;36505;52.512;13.460;2024-02-28T00:57:09;101308.59;;;5.44;87.96
50550;BME280;36505;52.512;13.460;2024-02-28T00:59:34;101318.63;;;5.44;88.14
50550;BME280;36505;52.512;13.460;2024-02-28T01:01:59;101319.66;;;5.43;88.02
50550;BME280;36505;52.512;13.460;2024-02-28T01:04:25;101320.69;;;5.42;88.17
50550;BME280;36505;52.512;13.460;2024-02-28T01:06:50;101315.25;;;5.42;87.89
50550;BME280;36505;52.512;13.460;2024-02-28T01:09:16;101312.53;;;5.42;87.97
50550;BME280;36505;52.512;13.460;2024-02-28T01:11:41;101326.13;;;5.42;87.64
50550;BME280;36505;52.512;13.460;2024-02-28T01:14:06;101327.16;;;5.41;87.76
50550;BME280;36505;52.512;13.460;2024-02-28T01:16:32;101323.59;;;5.40;87.94
50550;BME280;36505;52.512;13.460;2024-02-28T01:18:57;101335.31;;;5.41;87.92
50550;BME280;36505;52.512;13.460;2024-02-28T01:21:23;101329.88;;;5.41;88.27
50550;BME280;36505;52.512;13.460;2024-02-28T01:23:48;101318.75;;;5.36;88.24
50550;BME280;36505;52.512;13.460;2024-02-28T01:26:14;101340.72;;;5.41;88.43
50550;BME280;36505;52.512;13.460;2024-02-28T01:28:40;101332.59;;;5.41;88.18
50550;BME280;36505;52.512;13.460;2024-02-28T01:31:06;101322.75;;;5.40;87.74
50550;BME280;36505;52.512;13.460;2024-02-28T01:33:31;101321.09;;;5.39;87.67
50550;BME280;36505;52.512;13.460;2024-02-28T01:35:57;101323.81;;;5.39;88.03
50550;BME280;36505;52.512;13.460;2024-02-28T01:38:23;101319.41;;;5.38;87.68
50550;BME280;36505;52.512;13.460;2024-02-28T01:40:49;101321.91;;;5.39;87.92
50550;BME280;36505;52.512;13.460;2024-02-28T01:43:14;101323.81;;;5.39;87.96
50550;BME280;36505;52.512;13.460;2024-02-28T01:45:40;101313.97;;;5.38;87.96
50550;BME280;36505;52.512;13.460;2024-02-28T01:48:06;101320.44;;;5.37;87.83
50550;BME280;36505;52.512;13.460;2024-02-28T01:50:34;101318.75;;;5.36;87.74
50550;BME280;36505;52.512;13.460;2024-02-28T01:53:00;101313.53;;;5.34;87.74
50550;BME280;36505;52.512;13.460;2024-02-28T01:55:25;101312.69;;;5.34;88.33
50550;BME280;36505;52.512;13.460;2024-02-28T01:57:52;101324.19;;;5.36;88.65
50550;BME280;36505;52.512;13.460;2024-02-28T02:00:18;101318.75;;;5.36;88.96
50550;BME280;36505;52.512;13.460;2024-02-28T02:02:44;101317.09;;;5.35;88.38
50550;BME280;36505;52.512;13.460;2024-02-28T02:05:10;101311.84;;;5.33;88.69
50550;BME280;36505;52.512;13.460;2024-02-28T02:07:35;101311.22;;;5.31;88.67
50550;BME280;36505;52.512;13.460;2024-02-28T02:10:01;101295.75;;;5.32;88.41
50550;BME280;36505;52.512;13.460;2024-02-28T02:12:27;101297.63;;;5.31;88.45
50550;BME280;36505;52.512;13.460;2024-02-28T02:14:52;101300.34;;;5.31;88.37
50550;BME280;36505;52.512;13.460;2024-02-28T02:17:18;101303.44;;;5.28;88.56
50550;BME280;36505;52.512;13.460;2024-02-28T02:19:43;101311.41;;;5.30;89.06
50550;BME280;36505;52.512;13.460;2024-02-28T02:22:10;101311.41;;;5.30;88.79
50550;BME280;36505;52.512;13.460;2024-02-28T02:24:38;101312.44;;;5.29;88.45
50550;BME280;36505;52.512;13.460;2024-02-28T02:27:04;101315.16;;;5.29;88.39
50550;BME280;36505;52.512;13.460;2024-02-28T02:29:30;101320.59;;;5.29;88.43
50550;BME280;36505;52.512;13.460;2024-02-28T02:31:55;101327.69;;;5.30;88.36
50550;BME280;36505;52.512;13.460;2024-02-28T02:34:21;101326.84;;;5.29;88.10
50550;BME280;36505;52.512;13.460;2024-02-28T02:36:46;101329.56;;;5.29;88.04
50550;BME280;36505;52.512;13.460;2024-02-28T02:39:12;101332.28;;;5.29;88.00
50550;BME280;36505;52.512;13.460;2024-02-28T02:41:37;101331.44;;;5.29;88.09
50550;BME280;36505;52.512;13.460;2024-02-28T02:44:03;101335.84;;;5.30;88.16
50550;BME280;36505;52.512;13.460;2024-02-28T02:46:28;101341.28;;;5.30;88.14
50550;BME280;36505;52.512;13.460;2024-02-28T02:48:54;101346.72;;;5.30;88.06
50550;BME280;36505;52.512;13.460;2024-02-28T02:51:19;101342.13;;;5.30;88.00
50550;BME280;36505;52.512;13.460;2024-02-28T02:53:45;101345.69;;;5.31;87.66
50550;BME280;36505;52.512;13.460;2024-02-28T02:56:10;101355.69;;;5.30;87.89
50550;BME280;36505;52.512;13.460;2024-02-28T02:58:36;101345.88;;;5.29;87.75
50550;BME280;36505;52.512;13.460;2024-02-28T03:01:02;101359.44;;;5.29;87.60
50550;BME280;36505;52.512;13.460;2024-02-28T03:03:27;101368.44;;;5.30;87.69
50550;BME280;36505;52.512;13.460;2024-02-28T03:05:52;101365.72;;;5.30;88.23
50550;BME280;36505;52.512;13.460;2024-02-28T03:08:18;101357.75;;;5.28;87.92
50550;BME280;36505;52.512;13.460;2024-02-28T03:10:43;101360.47;;;5.28;87.50
50550;BME280;36505;52.512;13.460;2024-02-28T03:13:08;101356.91;;;5.28;87.66
50550;BME280;36505;52.512;13.460;2024-02-28T03:15:34;101357.75;;;5.28;87.59
50550;BME280;36505;52.512;13.460;2024-02-28T03:17:59;101352.50;;;5.27;87.48
50550;BME280;36505;52.512;13.460;2024-02-28T03:20:25;101357.09;;;5.26;87.48
50550;BME280;36505;52.512;13.460;2024-02-28T03:22:51;101362.75;;;5.25;87.29
50550;BME280;36505;52.512;13.460;2024-02-28T03:25:17;101360.03;;;5.25;87.10
50550;BME280;36505;52.512;13.460;2024-02-28T03:27:42;101356.47;;;5.24;87.25
50550;BME280;36505;52.512;13.460;2024-02-28T03:30:08;101360.22;;;5.23;87.09
50550;BME280;36505;52.512;13.460;2024-02-28T03:32:33;101367.53;;;5.23;86.99
50550;BME280;36505;52.512;13.460;2024-02-28T03:34:59;101369.41;;;5.22;87.10
50550;BME280;36505;52.512;13.460;2024-02-28T03:37:25;101357.88;;;5.20;86.81
50550;BME280;36505;52.512;13.460;2024-02-28T03:39:51;101362.47;;;5.20;87.15
50550;BME280;36505;52.512;13.460;2024-02-28T03:42:16;101361.63;;;5.19;87.27
50550;BME280;36505;52.512;13.460;2024-02-28T03:44:41;101359.97;;;5.18;86.90
50550;BME280;36505;52.512;13.460;2024-02-28T03:47:07;101368.97;;;5.19;87.35
50550;BME280;36505;52.512;13.460;2024-02-28T03:49:32;101360.81;;;5.19;87.34
50550;BME280;36505;52.512;13.460;2024-02-28T03:51:57;101355.38;;;5.19;86.95
50550;BME280;36505;52.512;13.460;2024-02-28T03:54:23;101353.69;;;5.18;86.83
50550;BME280;36505;52.512;13.460;2024-02-28T03:56:49;101362.03;;;5.16;87.01
50550;BME280;36505;52.512;13.460;2024-02-28T03:59:14;101354.06;;;5.14;86.80
50550;BME280;36505;52.512;13.460;2024-02-28T04:01:39;101364.94;;;5.14;87.21
50550;BME280;36505;52.512;13.460;2024-02-28T04:04:05;101363.25;;;5.13;86.59
50550;BME280;36505;52.512;13.460;2024-02-28T04:06:30;101373.25;;;5.13;87.02
50550;BME280;36505;52.512;13.460;2024-02-28T04:08:55;101368.69;;;5.13;87.09
50550;BME280;36505;52.512;13.460;2024-02-28T04:11:21;101367.84;;;5.13;87.07
50550;BME280;36505;52.512;13.460;2024-02-28T04:13:46;101373.47;;;5.11;87.27
50550;BME280;36505;52.512;13.460;2024-02-28T04:16:12;101381.63;;;5.11;86.77
50550;BME280;36505;52.512;13.460;2024-02-28T04:18:37;101384.53;;;5.10;86.63
50550;BME280;36505;52.512;13.460;2024-02-28T04:21:03;101380.50;;;5.06;86.98
50550;BME280;36505;52.512;13.460;2024-02-28T04:23:28;101385.56;;;5.09;86.86
50550;BME280;36505;52.512;13.460;2024-02-28T04:25:53;101375.28;;;5.04;86.86
50550;BME280;36505;52.512;13.460;2024-02-28T04:28:19;101383.03;;;5.07;86.64
50550;BME280;36505;52.512;13.460;2024-02-28T04:30:44;101375.91;;;5.06;86.48
50550;BME280;36505;52.512;13.460;2024-02-28T04:33:09;101378.84;;;5.05;86.53
50550;BME280;36505;52.512;13.460;2024-02-28T04:35:35;101387.00;;;5.05;86.74
50550;BME280;36505;52.512;13.460;2024-02-28T04:38:00;101391.56;;;5.04;86.53
50550;BME280;36505;52.512;13.460;2024-02-28T04:40:26;101384.47;;;5.03;86.80
50550;BME280;36505;52.512;13.460;2024-02-28T04:42:51;101394.28;;;5.04;86.89
50550;BME280;36505;52.512;13.460;2024-02-28T04:45:16;101403.28;;;5.05;86.55
50550;BME280;36505;52.512;13.460;2024-02-28T04:47:42;101399.72;;;5.04;86.95
50550;BME280;36505;52.512;13.460;2024-02-28T04:50:09;101402.63;;;5.03;86.58
50550;BME280;36505;52.512;13.460;2024-02-28T04:52:34;101405.34;;;5.03;86.34
50550;BME280;36505;52.512;13.460;2024-02-28T04:55:00;101408.03;;;5.03;86.48
50550;BME280;36505;52.512;13.460;2024-02-28T04:57:25;101411.78;;;5.02;86.52
50550;BME280;36505;52.512;13.460;2024-02-28T04:59:51;101407.38;;;5.01;86.51
50550;BME280;36505;52.512;13.460;2024-02-28T05:02:16;101405.69;;;5.00;86.55
50550;BME280;36505;52.512;13.460;2024-02-28T05:04:42;101410.50;;;4.98;86.72
50550;BME280;36505;52.512;13.460;2024-02-28T05:07:07;101412.81;;;5.01;86.49
50550;BME280;36505;52.512;13.460;2024-02-28T05:09:33;101414.69;;;5.00;86.59
50550;BME280;36505;52.512;13.460;2024-02-28T05:11:59;101419.28;;;5.00;86.63
50550;BME280;36505;52.512;13.460;2024-02-28T05:14:25;101429.28;;;4.99;86.55
50550;BME280;36505;52.512;13.460;2024-02-28T05:16:50;101424.06;;;4.98;86.62
50550;BME280;36505;52.512;13.460;2024-02-28T05:19:16;101434.53;;;5.01;86.68
50550;BME280;36505;52.512;13.460;2024-02-28T05:21:45;101447.25;;;5.00;86.52
50550;BME280;36505;52.512;13.460;2024-02-28T05:24:11;101444.53;;;5.00;86.49
50550;BME280;36505;52.512;13.460;2024-02-28T05:26:37;101448.09;;;5.01;86.50
50550;BME280;36505;52.512;13.460;2024-02-28T05:29:04;101439.50;;;4.97;86.70
50550;BME280;36505;52.512;13.460;2024-02-28T05:31:31;101443.69;;;5.00;86.85
50550;BME280;36505;52.512;13.460;2024-02-28T05:33:57;101441.84;;;5.00;86.51
50550;BME280;36505;52.512;13.460;2024-02-28T05:36:24;101446.22;;;5.01;86.16
50550;BME280;36505;52.512;13.460;2024-02-28T05:38:51;101444.94;;;4.97;86.48
50550;BME280;36505;52.512;13.460;2024-02-28T05:41:17;101448.28;;;4.99;86.61
50550;BME280;36505;52.512;13.460;2024-02-28T05:43:43;101449.97;;;5.00;86.70
50550;BME280;36505;52.512;13.460;2024-02-28T05:46:08;101448.94;;;5.01;86.68
50550;BME280;36505;52.512;13.460;2024-02-28T05:48:34;101450.81;;;5.01;86.61
50550;BME280;36505;52.512;13.460;2024-02-28T05:51:02;101458.78;;;5.02;86.31
50550;BME280;36505;52.512;13.460;2024-02-28T05:53:28;101448.09;;;5.01;86.32
50550;BME280;36505;52.512;13.460;2024-02-28T05:55:57;101458.13;;;5.00;86.27
50550;BME280;36505;52.512;13.460;2024-02-28T05:58:23;101470.66;;;5.01;86.34
50550;BME280;36505;52.512;13.460;2024-02-28T06:00:50;101474.22;;;5.02;86.60
50550;BME280;36505;52.512;13.460;2024-02-28T06:03:16;101448.22;;;4.93;86.60
50550;BME280;36505;52.512;13.460;2024-02-28T06:05:41;101461.84;;;4.99;86.48
50550;BME280;36505;52.512;13.460;2024-02-28T06:08:06;101473.19;;;5.03;86.38
50550;BME280;36505;52.512;13.460;2024-02-28T06:10:32;101474.22;;;5.02;86.27
50550;BME280;36505;52.512;13.460;2024-02-28T06:12:57;101478.63;;;5.03;86.55
50550;BME280;36505;52.512;13.460;2024-02-28T06:15:23;101490.94;;;5.05;86.79
50550;BME280;36505;52.512;13.460;2024-02-28T06:17:49;101490.13;;;5.05;86.45
50550;BME280;36505;52.512;13.460;2024-02-28T06:20:14;101497.22;;;5.06;86.68
50550;BME280;36505;52.512;13.460;2024-02-28T06:22:40;101499.75;;;5.07;86.71
50550;BME280;36505;52.512;13.460;2024-02-28T06:25:06;101505.19;;;5.07;86.60
50550;BME280;36505;52.512;13.460;2024-02-28T06:27:38;101510.63;;;5.07;86.27
50550;BME280;36505;52.512;13.460;2024-02-28T06:30:05;101508.56;;;5.09;86.22
50550;BME280;36505;52.512;13.460;2024-02-28T06:32:30;101507.72;;;5.09;86.42
50550;BME280;36505;52.512;13.460;2024-02-28T06:34:55;101521.28;;;5.09;86.45
50550;BME280;36505;52.512;13.460;2024-02-28T06:37:21;101522.13;;;5.09;86.28
50550;BME280;36505;52.512;13.460;2024-02-28T06:39:46;101522.97;;;5.10;86.31
50550;BME280;36505;52.512;13.460;2024-02-28T06:42:11;101521.94;;;5.11;86.39
50550;BME280;36505;52.512;13.460;2024-02-28T06:44:37;101518.38;;;5.10;86.26
50550;BME280;36505;52.512;13.460;2024-02-28T06:47:02;101515.69;;;5.10;86.21
50550;BME280;36505;52.512;13.460;2024-02-28T06:49:28;101517.53;;;5.10;86.08
50550;BME280;36505;52.512;13.460;2024-02-28T06:51:53;101520.06;;;5.11;86.11
50550;BME280;36505;52.512;13.460;2024-02-28T06:54:20;101512.75;;;5.12;86.25
50550;BME280;36505;52.512;13.460;2024-02-28T06:56:46;101524.44;;;5.12;86.56
50550;BME280;36505;52.512;13.460;2024-02-28T06:59:11;101529.88;;;5.12;86.35
50550;BME280;36505;52.512;13.460;2024-02-28T07:01:37;101535.13;;;5.14;86.29
50550;BME280;36505;52.512;13.460;2024-02-28T07:04:02;101533.25;;;5.14;86.03
50550;BME280;36505;52.512;13.460;2024-02-28T07:06:28;101540.38;;;5.15;86.04
50550;BME280;36505;52.512;13.460;2024-02-28T07:08:53;101542.06;;;5.16;86.28
50550;BME280;36505;52.512;13.460;2024-02-28T07:11:18;101541.22;;;5.16;86.36
50550;BME280;36505;52.512;13.460;2024-02-28T07:13:44;101545.63;;;5.17;86.41
50550;BME280;36505;52.512;13.460;2024-02-28T07:16:09;101547.31;;;5.18;86.95
50550;BME280;36505;52.512;13.460;2024-02-28T07:18:35;101544.38;;;5.20;86.58
50550;BME280;36505;52.512;13.460;2024-02-28T07:21:00;101543.34;;;5.21;86.67
50550;BME280;36505;52.512;13.460;2024-02-28T07:23:26;101545.03;;;5.22;86.48
50550;BME280;36505;52.512;13.460;2024-02-28T07:25:52;101543.34;;;5.21;86.59
50550;BME280;36505;52.512;13.460;2024-02-28T07:28:17;101532.03;;;5.17;86.30
50550;BME280;36505;52.512;13.460;2024-02-28T07:30:43;101541.31;;;5.23;86.50
50550;BME280;36505;52.512;13.460;2024-02-28T07:33:10;101537.75;;;5.22;86.42
50550;BME280;36505;52.512;13.460;2024-02-28T07:35:48;101531.47;;;5.22;86.13
50550;BME280;36505;52.512;13.460;2024-02-28T07:38:15;101545.88;;;5.22;85.99
50550;BME280;36505;52.512;13.460;2024-02-28T07:40:42;101539.63;;;5.22;86.12
50550;BME280;36505;52.512;13.460;2024-02-28T07:43:08;101538.75;;;5.21;86.25
50550;BME280;36505;52.512;13.460;2024-02-28T07:45:34;101540.63;;;5.21;86.29
50550;BME280;36505;52.512;13.460;2024-02-28T07:47:59;101537.91;;;5.21;86.21
50550;BME280;36505;52.512;13.460;2024-02-28T07:50:24;101541.88;;;5.18;86.26
50550;BME280;36505;52.512;13.460;2024-02-28T07:52:50;101557.78;;;5.21;86.32
50550;BME280;36505;52.512;13.460;2024-02-28T07:55:18;101558.63;;;5.22;86.11
50550;BME280;36505;52.512;13.460;2024-02-28T07:57:45;101558.63;;;5.22;86.38
50550;BME280;36505;52.512;13.460;2024-02-28T08:00:12;101562.00;;;5.24;86.26
50550;BME280;36505;52.512;13.460;2024-02-28T08:02:38;101566.41;;;5.25;86.46
50550;BME280;36505;52.512;13.460;2024-02-28T08:05:04;101573.47;;;5.26;86.21
50550;BME280;36505;52.512;13.460;2024-02-28T08:07:32;101570.78;;;5.26;86.32
50550;BME280;36505;52.512;13.460;2024-02-28T08:09:58;101583.13;;;5.28;86.33
50550;BME280;36505;52.512;13.460;2024-02-28T08:12:23;101580.59;;;5.27;86.12
50550;BME280;36505;52.512;13.460;2024-02-28T08:14:48;101587.72;;;5.28;85.92
50550;BME280;36505;52.512;13.460;2024-02-28T08:17:14;101594.84;;;5.29;86.10
50550;BME280;36505;52.512;13.460;2024-02-28T08:19:41;101594.00;;;5.28;85.85
50550;BME280;36505;52.512;13.460;2024-02-28T08:22:06;101599.44;;;5.28;85.86
50550;BME280;36505;52.512;13.460;2024-02-28T08:24:32;101591.47;;;5.27;85.75
50550;BME280;36505;52.512;13.460;2024-02-28T08:26:58;101602.31;;;5.27;85.97
50550;BME280;36505;52.512;13.460;2024-02-28T08:29:23;101599.81;;;5.25;85.44
50550;BME280;36505;52.512;13.460;2024-02-28T08:31:49;101607.75;;;5.27;85.56
50550;BME280;36505;52.512;13.460;2024-02-28T08:34:14;101608.78;;;5.26;85.73
50550;BME280;36505;52.512;13.460;2024-02-28T08:36:39;101608.16;;;5.24;85.78
50550;BME280;36505;52.512;13.460;2024-02-28T08:39:05;101617.78;;;5.26;85.58
50550;BME280;36505;52.512;13.460;2024-02-28T08:41:33;101606.47;;;5.23;85.17
50550;BME280;36505;52.512;13.460;2024-02-28T08:43:59;101614.63;;;5.23;84.83
50550;BME280;36505;52.512;13.460;2024-02-28T08:46:24;101619.00;;;5.24;85.16
50550;BME280;36505;52.512;13.460;2024-02-28T08:48:50;101621.91;;;5.22;85.16
50550;BME280;36505;52.512;13.460;2024-02-28T08:51:15;101618.34;;;5.22;84.90
50550;BME280;36505;52.512;13.460;2024-02-28T08:53:40;101623.97;;;5.20;84.92
50550;BME280;36505;52.512;13.460;2024-02-28T08:56:06;101632.09;;;5.20;84.94
50550;BME280;36505;52.512;13.460;2024-02-28T08:58:31;101628.56;;;5.20;85.15
50550;BME280;36505;52.512;13.460;2024-02-28T09:00:57;101618.09;;;5.16;84.98
50550;BME280;36505;52.512;13.460;2024-02-28T09:03:22;101619.78;;;5.18;84.26
50550;BME280;36505;52.512;13.460;2024-02-28T09:05:48;101612.66;;;5.16;84.78
50550;BME280;36505;52.512;13.460;2024-02-28T09:08:13;101607.03;;;5.18;84.83
50550;BME280;36505;52.512;13.460;2024-02-28T09:10:39;101601.63;;;5.18;85.20
50550;BME280;36505;52.512;13.460;2024-02-28T09:13:04;101603.09;;;5.21;85.27
50550;BME280;36505;52.512;13.460;2024-02-28T09:15:31;101613.94;;;5.21;84.97
50550;BME280;36505;52.512;13.460;2024-02-28T09:17:57;101616.66;;;5.21;84.91
50550;BME280;36505;52.512;13.460;2024-02-28T09:20:22;101621.06;;;5.22;85.08
50550;BME280;36505;52.512;13.460;2024-02-28T09:22:48;101617.31;;;5.23;85.06
50550;BME280;36505;52.512;13.460;2024-02-28T09:25:13;101606.47;;;5.23;84.92
50550;BME280;36505;52.512;13.460;2024-02-28T09:27:40;101616.31;;;5.24;84.84
50550;BME280;36505;52.512;13.460;2024-02-28T09:30:06;101625.28;;;5.24;84.41
50550;BME280;36505;52.512;13.460;2024-02-28T09:32:32;101616.31;;;5.24;84.68
50550;BME280;36505;52.512;13.460;2024-02-28T09:34:57;101619.88;;;5.24;84.55
50550;BME280;36505;52.512;13.460;2024-02-28T09:37:23;101620.72;;;5.25;84.57
50550;BME280;36505;52.512;13.460;2024-02-28T09:39:50;101623.41;;;5.25;84.50
50550;BME280;36505;52.512;13.460;2024-02-28T09:42:16;101622.94;;;5.21;84.14
50550;BME280;36505;52.512;13.460;2024-02-28T09:44:42;101626.13;;;5.25;84.49
50550;BME280;36505;52.512;13.460;2024-02-28T09:47:08;101637.00;;;5.25;83.79
50550;BME280;36505;52.512;13.460;2024-02-28T09:49:34;101632.41;;;5.25;84.11
50550;BME280;36505;52.512;13.460;2024-02-28T09:52:03;101634.28;;;5.25;83.44
50550;BME280;36505;52.512;13.460;2024-02-28T09:54:28;101635.13;;;5.25;83.79
50550;BME280;36505;52.512;13.460;2024-02-28T09:56:54;101639.50;;;5.26;83.73
50550;BME280;36505;52.512;13.460;2024-02-28T09:59:20;101642.22;;;5.26;83.52
50550;BME280;36505;52.512;13.460;2024-02-28T10:01:54;101647.88;;;5.25;83.16
50550;BME280;36505;52.512;13.460;2024-02-28T10:04:20;101652.44;;;5.24;83.68
50550;BME280;36505;52.512;13.460;2024-02-28T10:06:46;101645.31;;;5.23;82.88
50550;BME280;36505;52.512;13.460;2024-02-28T10:09:14;101643.63;;;5.22;83.41
50550;BME280;36505;52.512;13.460;2024-02-28T10:11:41;101656.38;;;5.22;83.58
50550;BME280;36505;52.512;13.460;2024-02-28T10:14:08;101652.63;;;5.23;84.01
50550;BME280;36505;52.512;13.460;2024-02-28T10:16:34;101651.78;;;5.22;83.60
50550;BME280;36505;52.512;13.460;2024-02-28T10:18:59;101660.09;;;5.21;83.53
50550;BME280;36505;52.512;13.460;2024-02-28T10:21:25;101663.50;;;5.23;83.58
50550;BME280;36505;52.512;13.460;2024-02-28T10:23:51;101668.06;;;5.22;83.63
50550;BME280;36505;52.512;13.460;2024-02-28T10:26:17;101667.03;;;5.23;83.77
50550;BME280;36505;52.512;13.460;2024-02-28T10:28:42;101673.31;;;5.24;83.92
50550;BME280;36505;52.512;13.460;2024-02-28T10:31:09;101679.78;;;5.23;83.62
50550;BME280;36505;52.512;13.460;2024-02-28T10:33:35;101674.53;;;5.21;83.56
50550;BME280;36505;52.512;13.460;2024-02-28T10:36:03;101678.28;;;5.20;83.34
50550;BME280;36505;52.512;13.460;2024-02-28T10:38:31;101678.94;;;5.22;83.14
50550;BME280;36505;52.512;13.460;2024-02-28T10:41:01;101687.94;;;5.23;83.35
50550;BME280;36505;52.512;13.460;2024-02-28T10:43:30;101682.50;;;5.23;83.04
50550;BME280;36505;52.512;13.460;2024-02-28T10:45:59;101685.22;;;5.23;83.29
50550;BME280;36505;52.512;13.460;2024-02-28T10:48:26;101684.19;;;5.24;83.38
50550;BME280;36505;52.512;13.460;2024-02-28T10:50:52;101686.91;;;5.24;83.53
50550;BME280;36505;52.512;13.460;2024-02-28T10:53:22;101690.47;;;5.24;82.98
50550;BME280;36505;52.512;13.460;2024-02-28T10:56:00;101688.59;;;5.25;82.93
50550;BME280;36505;52.512;13.460;2024-02-28T10:58:32;101692.97;;;5.26;83.41
50550;BME280;36505;52.512;13.460;2024-02-28T11:01:00;101690.25;;;5.26;83.27
50550;BME280;36505;52.512;13.460;2024-02-28T11:03:25;101685.66;;;5.26;83.41
50550;BME280;36505;52.512;13.460;2024-02-28T11:05:51;101691.09;;;5.26;83.25
50550;BME280;36505;52.512;13.460;2024-02-28T11:08:24;101684.47;;;5.29;83.24
50550;BME280;36505;52.512;13.460;2024-02-28T11:10:57;101693.44;;;5.29;83.30
50550;BME280;36505;52.512;13.460;2024-02-28T11:13:24;101695.31;;;5.29;82.48
50550;BME280;36505;52.512;13.460;2024-02-28T11:15:49;101694.13;;;5.31;82.56
50550;BME280;36505;52.512;13.460;2024-02-28T11:18:15;101691.41;;;5.31;83.05
50550;BME280;36505;52.512;13.460;2024-02-28T11:20:41;101689.53;;;5.32;82.95
50550;BME280;36505;52.512;13.460;2024-02-28T11:23:09;101688.47;;;5.33;82.89
50550;BME280;36505;52.512;13.460;2024-02-28T11:25:35;101687.44;;;5.34;82.95
50550;BME280;36505;52.512;13.460;2024-02-28T11:28:00;101688.28;;;5.34;82.83
50550;BME280;36505;52.512;13.460;2024-02-28T11:30:26;101683.53;;;5.36;83.17
50550;BME280;36505;52.512;13.460;2024-02-28T11:32:55;101683.13;;;5.39;83.15
50550;BME280;36505;52.512;13.460;2024-02-28T11:35:23;101681.09;;;5.41;83.03
50550;BME280;36505;52.512;13.460;2024-02-28T11:37:49;101681.75;;;5.43;83.28
50550;BME280;36505;52.512;13.460;2024-02-28T11:40:14;101685.31;;;5.44;83.04
50550;BME280;36505;52.512;13.460;2024-02-28T11:42:40;101687.84;;;5.45;82.97
50550;BME280;36505;52.512;13.460;2024-02-28T11:45:09;101695.41;;;5.50;82.85
50550;BME280;36505;52.512;13.460;2024-02-28T11:47:35;101691.69;;;5.51;83.05
50550;BME280;36505;52.512;13.460;2024-02-28T11:50:04;101704.03;;;5.53;82.17
50550;BME280;36505;52.512;13.460;2024-02-28T11:52:33;101691.69;;;5.51;82.76
50550;BME280;36505;52.512;13.460;2024-02-28T11:54:59;101698.41;;;5.55;82.85
50550;BME280;36505;52.512;13.460;2024-02-28T11:57:25;101703.47;;;5.58;82.61
50550;BME280;36505;52.512;13.460;2024-02-28T11:59:51;101702.44;;;5.59;82.52
50550;BME280;36505;52.512;13.460;2024-02-28T12:02:17;101704.97;;;5.61;82.33
50550;BME280;36505;52.512;13.460;2024-02-28T12:04:43;101712.75;;;5.64;82.11
50550;BME280;36505;52.512;13.460;2024-02-28T12:07:09;101717.16;;;5.65;81.71
50550;BME280;36505;52.512;13.460;2024-02-28T12:09:35;101704.41;;;5.65;81.79
50550;BME280;36505;52.512;13.460;2024-02-28T12:12:01;101705.72;;;5.69;81.93
50550;BME280;36505;52.512;13.460;2024-02-28T12:14:27;101704.50;;;5.72;81.93
50550;BME280;36505;52.512;13.460;2024-02-28T12:16:53;101706.19;;;5.73;81.15
50550;BME280;36505;52.512;13.460;2024-02-28T12:19:18;101709.00;;;5.79;82.26
50550;BME280;36505;52.512;13.460;2024-02-28T12:21:45;101713.84;;;5.84;82.33
50550;BME280;36505;52.512;13.460;2024-02-28T12:24:11;101711.59;;;5.87;81.25
50550;BME280;36505;52.512;13.460;2024-02-28T12:26:38;101705.81;;;5.90;81.36
50550;BME280;36505;52.512;13.460;2024-02-28T12:29:03;101700.63;;;5.95;81.79
50550;BME280;36505;52.512;13.460;2024-02-28T12:31:31;101699.59;;;5.97;81.64
50550;BME280;36505;52.512;13.460;2024-02-28T12:33:56;101695.28;;;6.02;81.79
50550;BME280;36505;52.512;13.460;2024-02-28T12:36:22;101705.78;;;6.05;81.45
50550;BME280;36505;52.512;13.460;2024-02-28T12:38:47;101700.78;;;6.09;81.25
50550;BME280;36505;52.512;13.460;2024-02-28T12:41:13;101693.28;;;6.11;82.12
50550;BME280;36505;52.512;13.460;2024-02-28T12:43:39;101697.50;;;6.13;81.97